sensor_id;sensor_type;location;lat;lon;timestamp;P1;durP1;ratioP1;P2;durP2;ratioP2
49784;SDS011;35679;38.732;-121.358;2023-07-09T00:00:45;8.25;;;3.88;;
49784;SDS011;35679;38.732;-121.358;2023-07-09T00:03:35;4.15;;;3.75;;
49784;SDS011;35679;38.732;-121.358;2023-07-09T00:06:25;4.85;;;3.47;;
49784;SDS011;35679;38.732;-121.358;2023-07-09T00:09:15;3.88;;;3.10;;
49784;SDS011;35679;38.732;-121.358;2023-07-09T00:12:09;4.77;;;3.43;;
49784;SDS011;35679;38.732;-121.358;2023-07-09T00:15:03;5.78;;;3.70;;
49784;SDS011;35679;38.732;-121.358;2023-07-09T00:17:53;4.22;;;3.20;;
49784;SDS011;35679;38.732;-121.358;2023-07-09T00:20:43;3.67;;;3.00;;
49784;SDS011;35679;38.732;-121.358;2023-07-09T00:23:32;3.40;;;3.10;;
49784;SDS011;35679;38.732;-121.358;2023-07-09T00:26:22;3.78;;;3.30;;
49784;SDS011;35679;38.732;-121.358;2023-07-09T00:29:11;3.50;;;2.97;;
49784;SDS011;35679;38.732;-121.358;2023-07-09T00:32:01;5.85;;;3.53;;
49784;SDS011;35679;38.732;-121.358;2023-07-09T00:34:51;5.68;;;3.30;;
49784;SDS011;35679;38.732;-121.358;2023-07-09T00:37:43;4.57;;;3.22;;
49784;SDS011;35679;38.732;-121.358;2023-07-09T00:40:33;4.47;;;3.45;;
49784;SDS011;35679;38.732;-121.358;2023-07-09T00:43:22;5.28;;;3.35;;
49784;SDS011;35679;38.732;-121.358;2023-07-09T00:49:15;3.85;;;3.20;;
49784;SDS011;35679;38.732;-121.358;2023-07-09T00:52:26;5.07;;;3.42;;
49784;SDS011;35679;38.732;-121.358;2023-07-09T00:55:24;3.97;;;3.22;;
49784;SDS011;35679;38.732;-121.358;2023-07-09T00:58:17;4.85;;;3.53;;
49784;SDS011;35679;38.732;-121.358;2023-07-09T01:01:09;3.75;;;2.90;;
49784;SDS011;35679;38.732;-121.358;2023-07-09T01:04:03;3.35;;;3.05;;
49784;SDS011;35679;38.732;-121.358;2023-07-09T01:06:54;5.57;;;3.10;;
49784;SDS011;35679;38.732;-121.358;2023-07-09T01:09:45;3.37;;;3.03;;
49784;SDS011;35679;38.732;-121.358;2023-07-09T01:12:34;3.20;;;2.90;;
49784;SDS011;35679;38.732;-121.358;2023-07-09T01:15:24;3.63;;;3.15;;
49784;SDS011;35679;38.732;-121.358;2023-07-09T01:18:16;4.32;;;3.10;;
49784;SDS011;35679;38.732;-121.358;2023-07-09T01:21:08;4.43;;;3.25;;
49784;SDS011;35679;38.732;-121.358;2023-07-09T01:24:15;4.50;;;3.10;;
49784;SDS011;35679;38.732;-121.358;2023-07-09T01:27:37;3.10;;;2.90;;
49784;SDS011;35679;38.732;-121.358;2023-07-09T01:30:30;5.50;;;3.00;;
49784;SDS011;35679;38.732;-121.358;2023-07-09T01:33:25;5.22;;;3.03;;
49784;SDS011;35679;38.732;-121.358;2023-07-09T01:36:16;5.75;;;3.00;;
49784;SDS011;35679;38.732;-121.358;2023-07-09T01:39:11;4.35;;;3.28;;
49784;SDS011;35679;38.732;-121.358;2023-07-09T01:42:01;6.43;;;3.05;;
49784;SDS011;35679;38.732;-121.358;2023-07-09T01:44:51;3.55;;;3.10;;
49784;SDS011;35679;38.732;-121.358;2023-07-09T01:47:42;4.47;;;2.88;;
49784;SDS011;35679;38.732;-121.358;2023-07-09T01:50:32;5.32;;;2.90;;
49784;SDS011;35679;38.732;-121.358;2023-07-09T01:53:23;3.92;;;3.25;;
49784;SDS011;35679;38.732;-121.358;2023-07-09T01:56:15;3.90;;;3.33;;
49784;SDS011;35679;38.732;-121.358;2023-07-09T01:59:04;4.38;;;3.15;;
49784;SDS011;35679;38.732;-121.358;2023-07-09T02:01:54;4.57;;;2.92;;
49784;SDS011;35679;38.732;-121.358;2023-07-09T02:04:50;4.90;;;2.78;;
49784;SDS011;35679;38.732;-121.358;2023-07-09T02:07:41;3.72;;;3.10;;
49784;SDS011;35679;38.732;-121.358;2023-07-09T02:10:30;5.32;;;3.42;;
49784;SDS011;35679;38.732;-121.358;2023-07-09T02:13:20;3.90;;;3.30;;
49784;SDS011;35679;38.732;-121.358;2023-07-09T02:16:10;5.35;;;3.00;;
49784;SDS011;35679;38.732;-121.358;2023-07-09T02:18:59;4.30;;;2.92;;
49784;SDS011;35679;38.732;-121.358;2023-07-09T02:21:49;3.60;;;2.83;;
49784;SDS011;35679;38.732;-121.358;2023-07-09T02:24:38;3.15;;;2.85;;
49784;SDS011;35679;38.732;-121.358;2023-07-09T02:27:28;4.22;;;2.83;;
49784;SDS011;35679;38.732;-121.358;2023-07-09T02:30:17;4.57;;;2.88;;
49784;SDS011;35679;38.732;-121.358;2023-07-09T02:33:07;4.25;;;2.83;;
49784;SDS011;35679;38.732;-121.358;2023-07-09T02:35:56;5.35;;;3.30;;
49784;SDS011;35679;38.732;-121.358;2023-07-09T02:38:45;5.80;;;2.53;;
49784;SDS011;35679;38.732;-121.358;2023-07-09T02:41:35;5.45;;;2.80;;
49784;SDS011;35679;38.732;-121.358;2023-07-09T02:44:26;3.38;;;2.90;;
49784;SDS011;35679;38.732;-121.358;2023-07-09T02:47:21;4.63;;;2.92;;
49784;SDS011;35679;38.732;-121.358;2023-07-09T02:50:12;4.43;;;2.60;;
49784;SDS011;35679;38.732;-121.358;2023-07-09T02:53:01;5.85;;;2.80;;
49784;SDS011;35679;38.732;-121.358;2023-07-09T02:55:51;3.45;;;3.00;;
49784;SDS011;35679;38.732;-121.358;2023-07-09T02:58:40;3.50;;;2.63;;
49784;SDS011;35679;38.732;-121.358;2023-07-09T03:01:30;3.50;;;2.63;;
49784;SDS011;35679;38.732;-121.358;2023-07-09T03:04:21;3.03;;;2.63;;
49784;SDS011;35679;38.732;-121.358;2023-07-09T03:07:11;3.63;;;2.55;;
49784;SDS011;35679;38.732;-121.358;2023-07-09T03:10:00;3.10;;;2.75;;
49784;SDS011;35679;38.732;-121.358;2023-07-09T03:12:50;3.28;;;2.80;;
49784;SDS011;35679;38.732;-121.358;2023-07-09T03:15:39;4.00;;;2.53;;
49784;SDS011;35679;38.732;-121.358;2023-07-09T03:18:29;4.22;;;2.95;;
49784;SDS011;35679;38.732;-121.358;2023-07-09T03:21:18;4.65;;;2.90;;
49784;SDS011;35679;38.732;-121.358;2023-07-09T03:24:08;2.80;;;2.60;;
49784;SDS011;35679;38.732;-121.358;2023-07-09T03:26:57;3.05;;;2.85;;
49784;SDS011;35679;38.732;-121.358;2023-07-09T03:29:47;3.72;;;2.70;;
49784;SDS011;35679;38.732;-121.358;2023-07-09T03:32:36;3.25;;;2.80;;
49784;SDS011;35679;38.732;-121.358;2023-07-09T03:35:27;3.28;;;2.83;;
49784;SDS011;35679;38.732;-121.358;2023-07-09T03:38:17;4.60;;;2.90;;
49784;SDS011;35679;38.732;-121.358;2023-07-09T03:41:07;3.83;;;3.10;;
49784;SDS011;35679;38.732;-121.358;2023-07-09T03:43:56;3.13;;;2.90;;
49784;SDS011;35679;38.732;-121.358;2023-07-09T03:46:46;4.35;;;2.90;;
49784;SDS011;35679;38.732;-121.358;2023-07-09T03:49:35;2.92;;;2.53;;
49784;SDS011;35679;38.732;-121.358;2023-07-09T03:52:25;4.38;;;3.03;;
49784;SDS011;35679;38.732;-121.358;2023-07-09T03:55:14;3.03;;;2.72;;
49784;SDS011;35679;38.732;-121.358;2023-07-09T03:58:04;3.65;;;3.05;;
49784;SDS011;35679;38.732;-121.358;2023-07-09T04:00:53;5.07;;;3.03;;
49784;SDS011;35679;38.732;-121.358;2023-07-09T04:06:35;3.10;;;2.70;;
49784;SDS011;35679;38.732;-121.358;2023-07-09T04:09:24;4.88;;;2.90;;
49784;SDS011;35679;38.732;-121.358;2023-07-09T04:12:14;3.88;;;2.80;;
49784;SDS011;35679;38.732;-121.358;2023-07-09T04:15:04;3.22;;;2.85;;
49784;SDS011;35679;38.732;-121.358;2023-07-09T04:17:54;3.17;;;2.88;;
49784;SDS011;35679;38.732;-121.358;2023-07-09T04:20:47;3.35;;;2.60;;
49784;SDS011;35679;38.732;-121.358;2023-07-09T04:23:38;3.05;;;2.75;;
49784;SDS011;35679;38.732;-121.358;2023-07-09T04:26:27;3.33;;;3.03;;
49784;SDS011;35679;38.732;-121.358;2023-07-09T04:29:17;2.53;;;2.33;;
49784;SDS011;35679;38.732;-121.358;2023-07-09T04:32:07;2.78;;;2.40;;
49784;SDS011;35679;38.732;-121.358;2023-07-09T04:35:02;4.13;;;2.60;;
49784;SDS011;35679;38.732;-121.358;2023-07-09T04:37:55;4.70;;;2.67;;
49784;SDS011;35679;38.732;-121.358;2023-07-09T04:40:44;2.67;;;2.33;;
49784;SDS011;35679;38.732;-121.358;2023-07-09T04:43:35;3.13;;;2.55;;
49784;SDS011;35679;38.732;-121.358;2023-07-09T04:46:24;3.75;;;2.40;;
49784;SDS011;35679;38.732;-121.358;2023-07-09T04:49:14;4.88;;;2.63;;
49784;SDS011;35679;38.732;-121.358;2023-07-09T04:52:04;3.63;;;2.53;;
49784;SDS011;35679;38.732;-121.358;2023-07-09T04:54:54;2.55;;;2.28;;
49784;SDS011;35679;38.732;-121.358;2023-07-09T04:57:45;4.93;;;3.05;;
49784;SDS011;35679;38.732;-121.358;2023-07-09T05:00:34;3.13;;;2.78;;
49784;SDS011;35679;38.732;-121.358;2023-07-09T05:03:24;5.18;;;2.70;;
49784;SDS011;35679;38.732;-121.358;2023-07-09T05:06:13;4.25;;;2.83;;
49784;SDS011;35679;38.732;-121.358;2023-07-09T05:09:03;4.65;;;2.90;;
49784;SDS011;35679;38.732;-121.358;2023-07-09T05:11:52;3.00;;;2.70;;
49784;SDS011;35679;38.732;-121.358;2023-07-09T05:14:42;4.38;;;2.88;;
49784;SDS011;35679;38.732;-121.358;2023-07-09T05:17:31;2.72;;;2.53;;
49784;SDS011;35679;38.732;-121.358;2023-07-09T05:20:21;2.70;;;2.50;;
49784;SDS011;35679;38.732;-121.358;2023-07-09T05:23:14;5.60;;;3.08;;
49784;SDS011;35679;38.732;-121.358;2023-07-09T05:26:03;4.03;;;2.85;;
49784;SDS011;35679;38.732;-121.358;2023-07-09T05:28:53;3.78;;;2.80;;
49784;SDS011;35679;38.732;-121.358;2023-07-09T05:31:45;3.92;;;2.80;;
49784;SDS011;35679;38.732;-121.358;2023-07-09T05:34:34;4.53;;;2.80;;
49784;SDS011;35679;38.732;-121.358;2023-07-09T05:37:24;3.00;;;2.50;;
49784;SDS011;35679;38.732;-121.358;2023-07-09T05:40:13;2.72;;;2.50;;
49784;SDS011;35679;38.732;-121.358;2023-07-09T05:43:03;3.30;;;2.75;;
49784;SDS011;35679;38.732;-121.358;2023-07-09T05:45:52;4.32;;;2.70;;
49784;SDS011;35679;38.732;-121.358;2023-07-09T05:48:41;2.78;;;2.58;;
49784;SDS011;35679;38.732;-121.358;2023-07-09T05:51:31;3.38;;;2.70;;
49784;SDS011;35679;38.732;-121.358;2023-07-09T05:54:20;4.32;;;2.67;;
49784;SDS011;35679;38.732;-121.358;2023-07-09T05:57:10;2.42;;;2.28;;
49784;SDS011;35679;38.732;-121.358;2023-07-09T05:59:59;3.17;;;2.45;;
49784;SDS011;35679;38.732;-121.358;2023-07-09T06:02:59;2.85;;;2.33;;
49784;SDS011;35679;38.732;-121.358;2023-07-09T06:05:50;3.60;;;2.60;;
49784;SDS011;35679;38.732;-121.358;2023-07-09T06:08:41;2.77;;;2.50;;
49784;SDS011;35679;38.732;-121.358;2023-07-09T06:11:31;4.85;;;2.33;;
49784;SDS011;35679;38.732;-121.358;2023-07-09T06:14:20;2.42;;;2.22;;
49784;SDS011;35679;38.732;-121.358;2023-07-09T06:17:10;3.28;;;2.42;;
49784;SDS011;35679;38.732;-121.358;2023-07-09T06:19:59;3.33;;;2.20;;
49784;SDS011;35679;38.732;-121.358;2023-07-09T06:22:49;4.65;;;2.28;;
49784;SDS011;35679;38.732;-121.358;2023-07-09T06:25:38;3.92;;;2.40;;
49784;SDS011;35679;38.732;-121.358;2023-07-09T06:28:28;3.05;;;2.28;;
49784;SDS011;35679;38.732;-121.358;2023-07-09T06:31:18;3.50;;;2.33;;
49784;SDS011;35679;38.732;-121.358;2023-07-09T06:34:09;2.58;;;2.40;;
49784;SDS011;35679;38.732;-121.358;2023-07-09T06:36:58;4.75;;;2.15;;
49784;SDS011;35679;38.732;-121.358;2023-07-09T06:39:48;2.42;;;2.22;;
49784;SDS011;35679;38.732;-121.358;2023-07-09T06:42:37;2.42;;;2.22;;
49784;SDS011;35679;38.732;-121.358;2023-07-09T06:45:55;2.17;;;1.92;;
49784;SDS011;35679;38.732;-121.358;2023-07-09T06:48:46;2.33;;;2.03;;
49784;SDS011;35679;38.732;-121.358;2023-07-09T06:51:36;3.85;;;2.10;;
49784;SDS011;35679;38.732;-121.358;2023-07-09T06:54:25;2.63;;;1.98;;
49784;SDS011;35679;38.732;-121.358;2023-07-09T06:57:14;2.30;;;2.10;;
49784;SDS011;35679;38.732;-121.358;2023-07-09T07:00:04;3.55;;;2.28;;
49784;SDS011;35679;38.732;-121.358;2023-07-09T07:02:55;3.20;;;2.05;;
49784;SDS011;35679;38.732;-121.358;2023-07-09T07:05:45;2.88;;;1.90;;
49784;SDS011;35679;38.732;-121.358;2023-07-09T07:11:26;1.90;;;1.65;;
49784;SDS011;35679;38.732;-121.358;2023-07-09T07:14:18;3.42;;;1.98;;
49784;SDS011;35679;38.732;-121.358;2023-07-09T07:17:08;2.28;;;1.77;;
49784;SDS011;35679;38.732;-121.358;2023-07-09T07:19:57;3.42;;;2.05;;
49784;SDS011;35679;38.732;-121.358;2023-07-09T07:22:46;2.15;;;1.98;;
49784;SDS011;35679;38.732;-121.358;2023-07-09T07:25:36;3.03;;;1.85;;
49784;SDS011;35679;38.732;-121.358;2023-07-09T07:28:25;2.90;;;1.95;;
49784;SDS011;35679;38.732;-121.358;2023-07-09T07:31:15;1.92;;;1.83;;
49784;SDS011;35679;38.732;-121.358;2023-07-09T07:34:05;2.58;;;2.17;;
49784;SDS011;35679;38.732;-121.358;2023-07-09T07:36:54;1.77;;;1.63;;
49784;SDS011;35679;38.732;-121.358;2023-07-09T07:39:44;3.03;;;2.17;;
49784;SDS011;35679;38.732;-121.358;2023-07-09T07:42:33;3.08;;;1.83;;
49784;SDS011;35679;38.732;-121.358;2023-07-09T07:45:23;2.53;;;1.80;;
49784;SDS011;35679;38.732;-121.358;2023-07-09T07:51:04;2.45;;;1.92;;
49784;SDS011;35679;38.732;-121.358;2023-07-09T07:53:54;2.75;;;2.00;;
49784;SDS011;35679;38.732;-121.358;2023-07-09T07:56:43;2.33;;;1.88;;
49784;SDS011;35679;38.732;-121.358;2023-07-09T07:59:33;3.65;;;1.92;;
49784;SDS011;35679;38.732;-121.358;2023-07-09T08:02:23;1.95;;;1.83;;
49784;SDS011;35679;38.732;-121.358;2023-07-09T08:05:13;3.97;;;1.80;;
49784;SDS011;35679;38.732;-121.358;2023-07-09T08:08:03;2.17;;;1.70;;
49784;SDS011;35679;38.732;-121.358;2023-07-09T08:10:59;2.63;;;2.00;;
49784;SDS011;35679;38.732;-121.358;2023-07-09T08:13:56;1.88;;;1.73;;
49784;SDS011;35679;38.732;-121.358;2023-07-09T08:16:45;2.20;;;1.80;;
49784;SDS011;35679;38.732;-121.358;2023-07-09T08:22:36;3.33;;;1.73;;
49784;SDS011;35679;38.732;-121.358;2023-07-09T08:25:27;3.15;;;1.85;;
49784;SDS011;35679;38.732;-121.358;2023-07-09T08:28:18;2.00;;;1.80;;
49784;SDS011;35679;38.732;-121.358;2023-07-09T08:31:07;3.08;;;2.03;;
49784;SDS011;35679;38.732;-121.358;2023-07-09T08:33:57;2.05;;;1.70;;
49784;SDS011;35679;38.732;-121.358;2023-07-09T08:36:47;2.30;;;1.70;;
49784;SDS011;35679;38.732;-121.358;2023-07-09T08:39:36;3.22;;;1.85;;
49784;SDS011;35679;38.732;-121.358;2023-07-09T08:42:31;2.85;;;2.00;;
49784;SDS011;35679;38.732;-121.358;2023-07-09T08:45:53;2.08;;;1.90;;
49784;SDS011;35679;38.732;-121.358;2023-07-09T08:49:12;2.05;;;1.70;;
49784;SDS011;35679;38.732;-121.358;2023-07-09T08:55:30;1.95;;;1.73;;
49784;SDS011;35679;38.732;-121.358;2023-07-09T08:58:29;3.60;;;2.13;;
49784;SDS011;35679;38.732;-121.358;2023-07-09T09:01:26;2.72;;;1.58;;
49784;SDS011;35679;38.732;-121.358;2023-07-09T09:07:31;3.10;;;2.25;;
49784;SDS011;35679;38.732;-121.358;2023-07-09T09:10:37;2.45;;;1.80;;
49784;SDS011;35679;38.732;-121.358;2023-07-09T09:13:36;3.15;;;1.77;;
49784;SDS011;35679;38.732;-121.358;2023-07-09T09:16:30;2.75;;;1.67;;
49784;SDS011;35679;38.732;-121.358;2023-07-09T09:19:37;2.47;;;1.73;;
49784;SDS011;35679;38.732;-121.358;2023-07-09T09:25:49;2.00;;;1.80;;
49784;SDS011;35679;38.732;-121.358;2023-07-09T09:28:59;2.15;;;1.83;;
49784;SDS011;35679;38.732;-121.358;2023-07-09T09:31:50;3.38;;;1.80;;
49784;SDS011;35679;38.732;-121.358;2023-07-09T09:34:45;3.80;;;1.65;;
49784;SDS011;35679;38.732;-121.358;2023-07-09T09:37:34;1.95;;;1.48;;
49784;SDS011;35679;38.732;-121.358;2023-07-09T09:40:25;2.17;;;1.70;;
49784;SDS011;35679;38.732;-121.358;2023-07-09T09:43:18;1.85;;;1.63;;
49784;SDS011;35679;38.732;-121.358;2023-07-09T09:46:16;2.75;;;1.80;;
49784;SDS011;35679;38.732;-121.358;2023-07-09T09:49:08;2.08;;;1.85;;
49784;SDS011;35679;38.732;-121.358;2023-07-09T09:52:01;2.15;;;1.90;;
49784;SDS011;35679;38.732;-121.358;2023-07-09T09:54:52;4.30;;;1.80;;
49784;SDS011;35679;38.732;-121.358;2023-07-09T09:57:50;1.98;;;1.60;;
49784;SDS011;35679;38.732;-121.358;2023-07-09T10:00:46;3.30;;;1.90;;
49784;SDS011;35679;38.732;-121.358;2023-07-09T10:03:40;1.70;;;1.60;;
49784;SDS011;35679;38.732;-121.358;2023-07-09T10:06:37;1.95;;;1.75;;
49784;SDS011;35679;38.732;-121.358;2023-07-09T10:12:52;3.65;;;1.90;;
49784;SDS011;35679;38.732;-121.358;2023-07-09T10:16:53;3.08;;;1.65;;
49784;SDS011;35679;38.732;-121.358;2023-07-09T10:19:25;3.70;;;1.63;;
49784;SDS011;35679;38.732;-121.358;2023-07-09T10:28:47;2.08;;;1.80;;
49784;SDS011;35679;38.732;-121.358;2023-07-09T10:31:50;2.95;;;1.70;;
49784;SDS011;35679;38.732;-121.358;2023-07-09T10:35:05;2.83;;;1.90;;
49784;SDS011;35679;38.732;-121.358;2023-07-09T10:38:07;1.92;;;1.75;;
49784;SDS011;35679;38.732;-121.358;2023-07-09T10:41:09;2.92;;;1.67;;
49784;SDS011;35679;38.732;-121.358;2023-07-09T10:44:10;2.58;;;1.92;;
49784;SDS011;35679;38.732;-121.358;2023-07-09T10:47:02;2.53;;;1.73;;
49784;SDS011;35679;38.732;-121.358;2023-07-09T10:50:01;1.95;;;1.63;;
49784;SDS011;35679;38.732;-121.358;2023-07-09T10:52:54;2.60;;;1.60;;
49784;SDS011;35679;38.732;-121.358;2023-07-09T10:55:56;2.28;;;1.67;;
49784;SDS011;35679;38.732;-121.358;2023-07-09T10:59:11;2.90;;;1.80;;
49784;SDS011;35679;38.732;-121.358;2023-07-09T11:02:24;1.95;;;1.70;;
49784;SDS011;35679;38.732;-121.358;2023-07-09T11:05:15;1.92;;;1.83;;
49784;SDS011;35679;38.732;-121.358;2023-07-09T11:08:06;2.05;;;1.77;;
49784;SDS011;35679;38.732;-121.358;2023-07-09T11:11:30;2.88;;;1.75;;
49784;SDS011;35679;38.732;-121.358;2023-07-09T11:17:44;2.20;;;1.75;;
49784;SDS011;35679;38.732;-121.358;2023-07-09T11:20:36;1.85;;;1.75;;
49784;SDS011;35679;38.732;-121.358;2023-07-09T11:23:38;1.80;;;1.70;;
49784;SDS011;35679;38.732;-121.358;2023-07-09T11:26:37;1.88;;;1.77;;
49784;SDS011;35679;38.732;-121.358;2023-07-09T11:29:44;3.08;;;1.70;;
49784;SDS011;35679;38.732;-121.358;2023-07-09T11:32:44;1.95;;;1.65;;
49784;SDS011;35679;38.732;-121.358;2023-07-09T11:35:51;3.78;;;1.80;;
49784;SDS011;35679;38.732;-121.358;2023-07-09T11:38:44;2.22;;;1.73;;
49784;SDS011;35679;38.732;-121.358;2023-07-09T11:41:41;1.80;;;1.70;;
49784;SDS011;35679;38.732;-121.358;2023-07-09T11:44:45;3.17;;;1.65;;
49784;SDS011;35679;38.732;-121.358;2023-07-09T11:47:43;1.65;;;1.63;;
49784;SDS011;35679;38.732;-121.358;2023-07-09T11:50:39;2.00;;;1.80;;
49784;SDS011;35679;38.732;-121.358;2023-07-09T11:56:32;3.33;;;1.70;;
49784;SDS011;35679;38.732;-121.358;2023-07-09T11:59:22;3.35;;;1.67;;
49784;SDS011;35679;38.732;-121.358;2023-07-09T12:02:16;2.88;;;1.90;;
49784;SDS011;35679;38.732;-121.358;2023-07-09T12:05:09;2.10;;;1.98;;
49784;SDS011;35679;38.732;-121.358;2023-07-09T12:07:59;2.65;;;1.88;;
49784;SDS011;35679;38.732;-121.358;2023-07-09T12:10:49;2.15;;;1.80;;
49784;SDS011;35679;38.732;-121.358;2023-07-09T12:13:38;5.07;;;2.10;;
49784;SDS011;35679;38.732;-121.358;2023-07-09T12:16:29;4.43;;;2.10;;
49784;SDS011;35679;38.732;-121.358;2023-07-09T12:19:22;4.57;;;2.97;;
49784;SDS011;35679;38.732;-121.358;2023-07-09T12:22:17;5.60;;;3.30;;
49784;SDS011;35679;38.732;-121.358;2023-07-09T12:25:17;18.70;;;10.77;;
49784;SDS011;35679;38.732;-121.358;2023-07-09T12:28:15;16.15;;;8.75;;
49784;SDS011;35679;38.732;-121.358;2023-07-09T12:31:10;13.02;;;6.88;;
49784;SDS011;35679;38.732;-121.358;2023-07-09T12:34:02;8.15;;;5.00;;
49784;SDS011;35679;38.732;-121.358;2023-07-09T12:36:52;6.93;;;4.22;;
49784;SDS011;35679;38.732;-121.358;2023-07-09T12:39:43;9.63;;;5.95;;
49784;SDS011;35679;38.732;-121.358;2023-07-09T12:42:33;8.23;;;5.15;;
49784;SDS011;35679;38.732;-121.358;2023-07-09T12:45:25;7.32;;;4.13;;
49784;SDS011;35679;38.732;-121.358;2023-07-09T12:48:17;5.05;;;3.35;;
49784;SDS011;35679;38.732;-121.358;2023-07-09T12:51:13;3.60;;;2.78;;
49784;SDS011;35679;38.732;-121.358;2023-07-09T12:54:14;2.78;;;2.53;;
49784;SDS011;35679;38.732;-121.358;2023-07-09T12:57:13;4.28;;;2.60;;
49784;SDS011;35679;38.732;-121.358;2023-07-09T13:00:08;2.47;;;2.20;;
49784;SDS011;35679;38.732;-121.358;2023-07-09T13:03:08;3.25;;;2.35;;
49784;SDS011;35679;38.732;-121.358;2023-07-09T13:06:04;3.72;;;2.10;;
49784;SDS011;35679;38.732;-121.358;2023-07-09T13:08:56;2.13;;;2.00;;
49784;SDS011;35679;38.732;-121.358;2023-07-09T13:11:48;2.72;;;2.53;;
49784;SDS011;35679;38.732;-121.358;2023-07-09T13:14:38;2.63;;;1.83;;
49784;SDS011;35679;38.732;-121.358;2023-07-09T13:17:28;2.78;;;1.73;;
49784;SDS011;35679;38.732;-121.358;2023-07-09T13:20:20;2.40;;;2.00;;
49784;SDS011;35679;38.732;-121.358;2023-07-09T13:23:13;2.75;;;1.80;;
49784;SDS011;35679;38.732;-121.358;2023-07-09T13:26:04;2.28;;;2.00;;
49784;SDS011;35679;38.732;-121.358;2023-07-09T13:28:56;2.05;;;1.90;;
49784;SDS011;35679;38.732;-121.358;2023-07-09T13:31:46;2.20;;;1.73;;
49784;SDS011;35679;38.732;-121.358;2023-07-09T13:34:36;1.80;;;1.70;;
49784;SDS011;35679;38.732;-121.358;2023-07-09T13:37:26;1.80;;;1.70;;
49784;SDS011;35679;38.732;-121.358;2023-07-09T13:40:16;2.30;;;2.10;;
49784;SDS011;35679;38.732;-121.358;2023-07-09T13:43:12;2.85;;;1.70;;
49784;SDS011;35679;38.732;-121.358;2023-07-09T13:46:22;2.25;;;1.77;;
49784;SDS011;35679;38.732;-121.358;2023-07-09T13:49:15;1.90;;;1.80;;
49784;SDS011;35679;38.732;-121.358;2023-07-09T13:52:12;1.90;;;1.80;;
49784;SDS011;35679;38.732;-121.358;2023-07-09T13:55:05;1.70;;;1.60;;
49784;SDS011;35679;38.732;-121.358;2023-07-09T13:57:58;3.42;;;1.88;;
49784;SDS011;35679;38.732;-121.358;2023-07-09T14:00:47;1.98;;;1.65;;
49784;SDS011;35679;38.732;-121.358;2023-07-09T14:03:39;2.45;;;1.90;;
49784;SDS011;35679;38.732;-121.358;2023-07-09T14:06:29;4.03;;;3.25;;
49784;SDS011;35679;38.732;-121.358;2023-07-09T14:09:19;4.22;;;3.10;;
49784;SDS011;35679;38.732;-121.358;2023-07-09T14:12:09;4.95;;;4.45;;
49784;SDS011;35679;38.732;-121.358;2023-07-09T14:15:00;7.15;;;5.05;;
49784;SDS011;35679;38.732;-121.358;2023-07-09T14:17:50;4.60;;;3.70;;
49784;SDS011;35679;38.732;-121.358;2023-07-09T14:20:40;4.50;;;3.40;;
49784;SDS011;35679;38.732;-121.358;2023-07-09T14:23:30;5.43;;;3.20;;
49784;SDS011;35679;38.732;-121.358;2023-07-09T14:26:22;3.40;;;2.63;;
49784;SDS011;35679;38.732;-121.358;2023-07-09T14:29:12;4.18;;;2.63;;
49784;SDS011;35679;38.732;-121.358;2023-07-09T14:32:05;2.17;;;2.08;;
49784;SDS011;35679;38.732;-121.358;2023-07-09T14:35:12;2.40;;;2.20;;
49784;SDS011;35679;38.732;-121.358;2023-07-09T14:38:05;2.67;;;2.10;;
49784;SDS011;35679;38.732;-121.358;2023-07-09T14:41:16;3.92;;;2.20;;
49784;SDS011;35679;38.732;-121.358;2023-07-09T14:47:17;2.05;;;1.90;;
49784;SDS011;35679;38.732;-121.358;2023-07-09T14:50:08;2.30;;;2.03;;
49784;SDS011;35679;38.732;-121.358;2023-07-09T14:53:02;1.85;;;1.80;;
49784;SDS011;35679;38.732;-121.358;2023-07-09T14:55:52;2.20;;;2.10;;
49784;SDS011;35679;38.732;-121.358;2023-07-09T14:58:42;2.95;;;2.08;;
49784;SDS011;35679;38.732;-121.358;2023-07-09T15:01:32;1.90;;;1.80;;
49784;SDS011;35679;38.732;-121.358;2023-07-09T15:07:11;2.10;;;1.90;;
49784;SDS011;35679;38.732;-121.358;2023-07-09T15:10:02;3.13;;;2.10;;
49784;SDS011;35679;38.732;-121.358;2023-07-09T15:12:56;2.10;;;1.80;;
49784;SDS011;35679;38.732;-121.358;2023-07-09T15:15:46;1.98;;;1.88;;
49784;SDS011;35679;38.732;-121.358;2023-07-09T15:18:35;2.10;;;2.00;;
49784;SDS011;35679;38.732;-121.358;2023-07-09T15:21:26;1.98;;;1.80;;
49784;SDS011;35679;38.732;-121.358;2023-07-09T15:24:25;2.00;;;1.90;;
49784;SDS011;35679;38.732;-121.358;2023-07-09T15:27:20;1.85;;;1.80;;
49784;SDS011;35679;38.732;-121.358;2023-07-09T15:30:13;2.22;;;2.03;;
49784;SDS011;35679;38.732;-121.358;2023-07-09T15:33:19;5.00;;;2.60;;
49784;SDS011;35679;38.732;-121.358;2023-07-09T15:36:10;5.18;;;2.13;;
49784;SDS011;35679;38.732;-121.358;2023-07-09T15:39:00;5.50;;;2.53;;
49784;SDS011;35679;38.732;-121.358;2023-07-09T15:41:50;5.07;;;1.98;;
49784;SDS011;35679;38.732;-121.358;2023-07-09T15:44:40;3.38;;;2.10;;
49784;SDS011;35679;38.732;-121.358;2023-07-09T15:47:29;4.13;;;2.00;;
49784;SDS011;35679;38.732;-121.358;2023-07-09T15:50:22;1.90;;;1.80;;
49784;SDS011;35679;38.732;-121.358;2023-07-09T15:53:16;3.45;;;1.83;;
49784;SDS011;35679;38.732;-121.358;2023-07-09T15:56:11;2.90;;;1.88;;
49784;SDS011;35679;38.732;-121.358;2023-07-09T15:59:01;1.95;;;1.75;;
49784;SDS011;35679;38.732;-121.358;2023-07-09T16:01:51;2.10;;;1.73;;
49784;SDS011;35679;38.732;-121.358;2023-07-09T16:04:43;2.13;;;1.90;;
49784;SDS011;35679;38.732;-121.358;2023-07-09T16:07:33;2.03;;;1.85;;
49784;SDS011;35679;38.732;-121.358;2023-07-09T16:10:23;2.70;;;1.88;;
49784;SDS011;35679;38.732;-121.358;2023-07-09T16:13:22;2.10;;;1.60;;
49784;SDS011;35679;38.732;-121.358;2023-07-09T16:16:18;1.83;;;1.70;;
49784;SDS011;35679;38.732;-121.358;2023-07-09T16:19:09;4.40;;;1.85;;
49784;SDS011;35679;38.732;-121.358;2023-07-09T16:22:02;2.00;;;1.80;;
49784;SDS011;35679;38.732;-121.358;2023-07-09T16:24:53;2.47;;;1.70;;
49784;SDS011;35679;38.732;-121.358;2023-07-09T16:27:43;1.77;;;1.67;;
49784;SDS011;35679;38.732;-121.358;2023-07-09T16:30:33;2.88;;;1.85;;
49784;SDS011;35679;38.732;-121.358;2023-07-09T16:33:25;2.15;;;1.60;;
49784;SDS011;35679;38.732;-121.358;2023-07-09T16:36:15;2.97;;;1.98;;
49784;SDS011;35679;38.732;-121.358;2023-07-09T16:39:20;1.92;;;1.70;;
49784;SDS011;35679;38.732;-121.358;2023-07-09T16:42:15;1.70;;;1.60;;
49784;SDS011;35679;38.732;-121.358;2023-07-09T16:45:04;2.47;;;1.73;;
49784;SDS011;35679;38.732;-121.358;2023-07-09T16:47:54;1.80;;;1.70;;
49784;SDS011;35679;38.732;-121.358;2023-07-09T16:50:44;2.20;;;1.90;;
49784;SDS011;35679;38.732;-121.358;2023-07-09T16:53:34;3.22;;;1.92;;
49784;SDS011;35679;38.732;-121.358;2023-07-09T16:56:23;4.28;;;2.00;;
49784;SDS011;35679;38.732;-121.358;2023-07-09T16:59:13;2.58;;;1.75;;
49784;SDS011;35679;38.732;-121.358;2023-07-09T17:02:07;1.85;;;1.60;;
49784;SDS011;35679;38.732;-121.358;2023-07-09T17:05:19;1.70;;;1.60;;
49784;SDS011;35679;38.732;-121.358;2023-07-09T17:08:10;2.33;;;1.73;;
49784;SDS011;35679;38.732;-121.358;2023-07-09T17:11:01;1.63;;;1.60;;
49784;SDS011;35679;38.732;-121.358;2023-07-09T17:13:51;1.88;;;1.77;;
49784;SDS011;35679;38.732;-121.358;2023-07-09T17:16:41;1.83;;;1.65;;
49784;SDS011;35679;38.732;-121.358;2023-07-09T17:19:35;2.67;;;1.70;;
49784;SDS011;35679;38.732;-121.358;2023-07-09T17:22:29;1.52;;;1.50;;